Sylacauga, Alabama
Current Conditions -  °F | °C
As of 11:15 AM on Friday 24 Oct 2014 (Local Time) from KSCD Reporting Station
Clear Clear  
Wind Chill: 67°   Ceiling: Unl
Heat Index: 67°   Visibility: 10mi
Dew Point: 51°   Wind: 3mph
Humidity: 56%   Direction: 10°N
Pressure: 30.1"   Gusts: NA
Location:  33.17°N, 86.25°W
Report Text: KSCD 241615Z AUTO 01003KT 10SM CLR 19/10 A3010 RMK AO2 T01930104
Loading
Personal Weather Stations






























Interactive Weather Map
Tropical Storm Tracking
New forecast layout! Learn more

10-Day Weather Forecast

Advertisements
Track Severe Weather on mobile